Time;durP1;ratioP1;P1;durP2;ratioP2;P2;SDS_P1;SDS_P2;PMS_P1;PMS_P2;Temp;Humidity;BMP_temperature;BMP_pressure;BME280_temperature;BME280_humidity;BME280_pressure;Samples;Min_cycle;Max_cycle;Signal;HPM_P1;HPM_P2
2022/02/16 00:02:11;;;;;;;;;;;;;;;20.09;43.76;99747.19;7281955;19;153021;-49
2022/02/16 00:04:38;;;;;;;;;;;;;;;20.07;44.22;99740.28;7290291;19;155128;-49
2022/02/16 00:07:06;;;;;;;;;;;;;;;20.03;43.93;99740.16;7284404;19;153433;-49
2022/02/16 00:09:32;;;;;;;;;;;;;;;20.03;43.93;99728.94;7281054;19;154361;-49
2022/02/16 00:12:01;;;;;;;;;;;;;;;20.00;43.79;99715.56;7283649;19;152558;-49
2022/02/16 00:14:28;;;;;;;;;;;;;;;19.99;44.10;99711.94;7284649;19;152715;-49
2022/02/16 00:16:55;;;;;;;;;;;;;;;19.95;43.96;99696.94;7282943;19;154021;-50
2022/02/16 00:19:23;;;;;;;;;;;;;;;19.95;43.77;99698.91;7282874;19;152015;-49
2022/02/16 00:21:50;;;;;;;;;;;;;;;19.93;43.73;99685.25;7281755;19;152642;-49
2022/02/16 00:24:17;;;;;;;;;;;;;;;19.90;44.21;99685.91;7280250;19;155104;-49
2022/02/16 00:26:44;;;;;;;;;;;;;;;19.86;44.26;99679.31;7290972;19;152043;-49
2022/02/16 00:29:11;;;;;;;;;;;;;;;19.85;44.02;99658.06;7283682;19;153554;-49
2022/02/16 00:31:39;;;;;;;;;;;;;;;19.83;44.28;99651.97;7283645;19;151748;-49
2022/02/16 00:34:06;;;;;;;;;;;;;;;19.80;44.17;99644.25;7280914;19;153256;-49
2022/02/16 00:36:33;;;;;;;;;;;;;;;19.76;43.99;99632.03;7278790;19;154337;-49
2022/02/16 00:39:00;;;;;;;;;;;;;;;19.76;44.12;99623.63;7283320;19;151963;-50
2022/02/16 00:41:28;;;;;;;;;;;;;;;19.74;44.12;99609.16;7281714;19;152949;-50
2022/02/16 00:43:55;;;;;;;;;;;;;;;19.72;44.02;99605.84;7279470;19;154472;-49
2022/02/16 00:46:24;;;;;;;;;;;;;;;19.72;44.34;99605.84;7282185;19;152068;-49
2022/02/16 00:48:51;;;;;;;;;;;;;;;19.69;44.12;99583.28;7288215;19;153806;-50
2022/02/16 00:51:19;;;;;;;;;;;;;;;19.70;44.13;99568.13;7286194;19;152339;-51
2022/02/16 00:53:46;;;;;;;;;;;;;;;19.73;44.73;99570.25;7285663;19;152780;-50
2022/02/16 00:56:14;;;;;;;;;;;;;;;19.70;44.88;99554.94;7281832;19;153997;-50
2022/02/16 00:58:41;;;;;;;;;;;;;;;19.64;45.04;99549.84;7284623;19;151900;-50
2022/02/16 01:01:08;;;;;;;;;;;;;;;19.63;45.04;99549.03;7284993;19;153822;-50
2022/02/16 01:03:36;;;;;;;;;;;;;;;19.57;45.19;99530.78;7284443;19;153333;-50
2022/02/16 01:06:03;;;;;;;;;;;;;;;19.55;45.20;99519.06;7286155;19;152381;-50
2022/02/16 01:08:30;;;;;;;;;;;;;;;19.54;45.79;99517.41;7286285;19;152855;-50
2022/02/16 01:10:58;;;;;;;;;;;;;;;19.50;45.82;99508.88;7289539;19;152762;-50
2022/02/16 01:13:24;;;;;;;;;;;;;;;19.48;45.83;99501.97;7281695;19;152034;-50
2022/02/16 01:15:52;;;;;;;;;;;;;;;19.46;45.99;99495.88;7281029;19;153946;-50
2022/02/16 01:18:19;;;;;;;;;;;;;;;19.44;46.40;99485.00;7286117;19;151795;-50
2022/02/16 01:20:46;;;;;;;;;;;;;;;19.41;46.41;99484.81;7282379;19;153354;-50
2022/02/16 01:23:13;;;;;;;;;;;;;;;19.42;46.50;99472.47;7284715;19;153278;-50
2022/02/16 01:25:40;;;;;;;;;;;;;;;19.42;46.24;99464.91;7284214;19;152072;-50
2022/02/16 01:28:07;;;;;;;;;;;;;;;19.39;46.42;99454.38;7286232;19;152848;-50
2022/02/16 01:30:34;;;;;;;;;;;;;;;19.36;46.64;99449.44;7284377;19;154115;-50
2022/02/16 01:33:01;;;;;;;;;;;;;;;19.33;46.59;99447.31;7291535;19;151566;-50
2022/02/16 01:35:28;;;;;;;;;;;;;;;19.33;46.96;99446.47;7282894;19;152890;-50
2022/02/16 01:37:55;;;;;;;;;;;;;;;19.31;46.67;99448.78;7282990;19;152108;-50
2022/02/16 01:40:22;;;;;;;;;;;;;;;19.29;46.76;99437.13;7284246;19;152491;-50
2022/02/16 01:42:48;;;;;;;;;;;;;;;19.26;47.19;99441.41;7283118;19;154327;-50
2022/02/16 01:45:22;;;;;;;;;;;;;;;19.24;47.21;99437.31;7283005;19;151572;-50
2022/02/16 01:47:49;;;;;;;;;;;;;;;19.23;47.31;99424.47;7283070;19;153874;-50
2022/02/16 01:50:16;;;;;;;;;;;;;;;19.20;47.24;99422.34;7280694;19;156059;-50
2022/02/16 01:52:43;;;;;;;;;;;;;;;19.17;47.13;99425.81;7290160;19;151943;-50
2022/02/16 01:55:11;;;;;;;;;;;;;;;19.17;47.22;99417.44;7281083;19;154071;-50
2022/02/16 01:57:39;;;;;;;;;;;;;;;19.14;47.60;99421.69;7283326;19;151769;-50
2022/02/16 02:00:07;;;;;;;;;;;;;;;19.12;47.46;99414.81;7280908;19;154627;-50
2022/02/16 02:02:35;;;;;;;;;;;;;;;19.12;47.55;99417.59;7280364;19;152743;-50
2022/02/16 02:05:02;;;;;;;;;;;;;;;19.10;47.77;99418.75;7282420;19;152169;-50
2022/02/16 02:07:29;;;;;;;;;;;;;;;19.08;48.04;99426.66;7283613;19;153437;-50
2022/02/16 02:09:56;;;;;;;;;;;;;;;19.07;47.73;99411.03;7278936;19;156032;-50
2022/02/16 02:12:23;;;;;;;;;;;;;;;19.05;48.05;99404.94;7282199;19;151540;-50
2022/02/16 02:14:51;;;;;;;;;;;;;;;19.04;47.95;99394.91;7288756;19;155172;-50
2022/02/16 02:17:18;;;;;;;;;;;;;;;19.01;48.39;99386.34;7282644;19;153190;-50
2022/02/16 02:19:44;;;;;;;;;;;;;;;19.00;48.48;99391.13;7283011;19;153601;-50
2022/02/16 02:22:11;;;;;;;;;;;;;;;19.01;48.36;99397.56;7278518;19;155976;-50
2022/02/16 02:24:38;;;;;;;;;;;;;;;18.99;48.22;99388.66;7283412;19;152061;-50
2022/02/16 02:27:05;;;;;;;;;;;;;;;18.98;48.50;99393.47;7284159;19;153080;-50
2022/02/16 02:29:32;;;;;;;;;;;;;;;18.99;48.58;99385.88;7280420;19;153799;-50
2022/02/16 02:31:59;;;;;;;;;;;;;;;18.96;48.60;99390.16;7281817;19;154108;-50
2022/02/16 02:34:26;;;;;;;;;;;;;;;18.96;48.96;99380.94;7281450;19;153999;-50
2022/02/16 02:36:53;;;;;;;;;;;;;;;18.93;48.94;99388.06;7288743;19;152784;-49
2022/02/16 02:39:20;;;;;;;;;;;;;;;18.94;49.05;99394.47;7282818;19;155219;-50
2022/02/16 02:41:46;;;;;;;;;;;;;;;18.91;49.46;99381.13;7278334;19;153407;-49
2022/02/16 02:44:13;;;;;;;;;;;;;;;18.90;49.15;99369.13;7283116;19;153030;-50
2022/02/16 02:46:40;;;;;;;;;;;;;;;18.89;49.32;99366.66;7282390;19;152331;-50
2022/02/16 02:49:09;;;;;;;;;;;;;;;18.87;49.53;99367.00;7277348;19;155247;-50
2022/02/16 02:51:36;;;;;;;;;;;;;;;18.86;49.74;99373.75;7281702;19;152018;-49
2022/02/16 02:54:03;;;;;;;;;;;;;;;18.84;49.84;99358.47;7283500;19;152783;-50
2022/02/16 02:56:30;;;;;;;;;;;;;;;18.85;49.72;99360.91;7281192;19;152931;-50
2022/02/16 02:58:57;;;;;;;;;;;;;;;18.84;49.69;99364.88;7290444;19;151876;-49
2022/02/16 03:01:26;;;;;;;;;;;;;;;18.83;49.97;99382.00;7279063;19;154065;-50
2022/02/16 03:03:53;;;;;;;;;;;;;;;18.82;49.94;99386.75;7282876;19;151867;-50
2022/02/16 03:06:20;;;;;;;;;;;;;;;18.81;50.26;99389.88;7282383;19;153273;-49
2022/02/16 03:08:47;;;;;;;;;;;;;;;18.79;49.96;99383.81;7277196;19;152241;-50
2022/02/16 03:11:19;;;;;;;;;;;;;;;18.80;49.61;99375.09;7283585;19;152259;-51
2022/02/16 03:13:47;;;;;;;;;;;;;;;18.78;50.20;99360.63;7287347;19;153720;-50
2022/02/16 03:16:14;;;;;;;;;;;;;;;18.76;50.15;99362.13;7286519;19;153423;-51
2022/02/16 03:18:41;;;;;;;;;;;;;;;18.73;50.14;99360.78;7287138;19;151801;-50
2022/02/16 03:21:08;;;;;;;;;;;;;;;18.72;50.39;99347.13;7294317;19;152665;-50
2022/02/16 03:23:35;;;;;;;;;;;;;;;18.72;50.56;99338.75;7289624;19;152077;-49
2022/02/16 03:26:02;;;;;;;;;;;;;;;18.70;50.53;99341.91;7289189;19;153226;-49
2022/02/16 03:28:29;;;;;;;;;;;;;;;18.71;50.23;99331.53;7284154;19;153582;-50
2022/02/16 03:30:56;;;;;;;;;;;;;;;18.69;50.66;99329.06;7287946;19;151832;-50
2022/02/16 03:33:30;;;;;;;;;;;;;;;18.65;50.47;99326.13;7288470;19;152918;-50
2022/02/16 03:35:57;;;;;;;;;;;;;;;18.67;50.51;99337.78;7286990;19;156183;-50
2022/02/16 03:38:24;;;;;;;;;;;;;;;18.64;50.62;99318.88;7285812;19;152166;-50
2022/02/16 03:40:53;;;;;;;;;;;;;;;18.64;50.84;99326.44;7288214;19;153541;-50
2022/02/16 03:43:20;;;;;;;;;;;;;;;18.63;50.80;99331.22;7288598;19;153482;-50
2022/02/16 03:45:47;;;;;;;;;;;;;;;18.63;50.56;99324.78;7288408;19;152496;-50
2022/02/16 03:48:14;;;;;;;;;;;;;;;18.64;50.88;99318.88;7285622;19;153462;-50
2022/02/16 03:50:41;;;;;;;;;;;;;;;18.62;51.01;99317.59;7286980;19;152064;-50
2022/02/16 03:53:08;;;;;;;;;;;;;;;18.60;50.93;99315.09;7287975;19;153312;-50
2022/02/16 03:55:35;;;;;;;;;;;;;;;18.59;51.19;99321.84;7284636;19;153163;-50
2022/02/16 03:58:02;;;;;;;;;;;;;;;18.58;51.21;99324.97;7285340;19;151920;-50
2022/02/16 04:00:28;;;;;;;;;;;;;;;18.56;51.08;99330.91;7286732;19;152556;-50
2022/02/16 04:02:55;;;;;;;;;;;;;;;18.57;51.14;99332.56;7292073;19;153828;-51
2022/02/16 04:05:23;;;;;;;;;;;;;;;18.55;51.29;99332.06;7285711;19;153196;-50
2022/02/16 04:07:50;;;;;;;;;;;;;;;18.54;51.30;99338.00;7286343;19;153951;-49
2022/02/16 04:10:17;;;;;;;;;;;;;;;18.55;51.29;99340.47;7284450;19;151926;-50
2022/02/16 04:12:44;;;;;;;;;;;;;;;18.55;51.45;99336.84;7285591;19;153164;-50
2022/02/16 04:15:11;;;;;;;;;;;;;;;18.57;51.16;99321.38;7285189;19;153746;-50
2022/02/16 04:17:39;;;;;;;;;;;;;;;18.61;51.33;99319.56;7287403;19;151518;-50
2022/02/16 04:20:07;;;;;;;;;;;;;;;18.55;51.48;99322.84;7285484;19;153316;-50
2022/02/16 04:22:38;;;;;;;;;;;;;;;18.52;51.78;99324.31;7280511;19;156100;-50
2022/02/16 04:25:06;;;;;;;;;;;;;;;18.50;52.04;99323.00;7292972;19;152324;-50
2022/02/16 04:27:33;;;;;;;;;;;;;;;18.47;51.67;99330.09;7286761;19;154237;-50
2022/02/16 04:30:00;;;;;;;;;;;;;;;18.48;52.21;99322.53;7285203;19;152320;-50
2022/02/16 04:32:27;;;;;;;;;;;;;;;18.52;51.87;99323.50;7287106;19;153155;-50
2022/02/16 04:34:54;;;;;;;;;;;;;;;18.47;51.76;99324.50;7283994;19;154123;-50
2022/02/16 04:37:21;;;;;;;;;;;;;;;18.48;51.78;99337.34;7286335;19;152181;-50
2022/02/16 04:39:48;;;;;;;;;;;;;;;18.46;52.27;99345.22;7284739;19;153156;-51
2022/02/16 04:42:15;;;;;;;;;;;;;;;18.44;52.36;99344.72;7284121;19;155803;-50
2022/02/16 04:44:43;;;;;;;;;;;;;;;18.52;52.37;99351.47;7287339;19;152445;-50
2022/02/16 04:47:09;;;;;;;;;;;;;;;18.48;52.61;99333.72;7292679;19;153419;-50
2022/02/16 04:49:36;;;;;;;;;;;;;;;18.46;52.84;99344.41;7286668;19;152204;-50
2022/02/16 04:52:03;;;;;;;;;;;;;;;18.45;52.73;99343.59;7283805;19;152032;-50
2022/02/16 04:54:31;;;;;;;;;;;;;;;18.43;52.85;99336.69;7284622;19;154146;-50
2022/02/16 04:56:58;;;;;;;;;;;;;;;18.40;52.70;99338.16;7284603;19;152054;-50
2022/02/16 04:59:25;;;;;;;;;;;;;;;18.40;53.08;99349.34;7284701;19;153146;-50
2022/02/16 05:01:52;;;;;;;;;;;;;;;18.40;52.69;99346.56;7283843;19;152395;-50
2022/02/16 05:04:19;;;;;;;;;;;;;;;18.44;52.96;99336.34;7286283;19;151505;-50
2022/02/16 05:06:46;;;;;;;;;;;;;;;18.41;52.75;99350.16;7284741;19;155493;-50
2022/02/16 05:09:12;;;;;;;;;;;;;;;18.41;52.90;99356.59;7292210;19;154193;-53
2022/02/16 05:11:39;;;;;;;;;;;;;;;18.38;53.03;99364.81;7284396;19;153898;-51
2022/02/16 05:14:06;;;;;;;;;;;;;;;18.35;53.06;99360.72;7283122;19;153817;-50
2022/02/16 05:16:33;;;;;;;;;;;;;;;18.35;53.42;99365.50;7283396;19;152383;-50
2022/02/16 05:19:00;;;;;;;;;;;;;;;18.36;53.24;99369.91;7282677;19;153533;-50
2022/02/16 05:21:27;;;;;;;;;;;;;;;18.36;53.38;99356.75;7284961;19;153509;-50
2022/02/16 05:23:54;;;;;;;;;;;;;;;18.34;53.62;99369.44;7282193;19;151961;-51
2022/02/16 05:26:21;;;;;;;;;;;;;;;18.34;53.63;99364.69;7285818;19;153347;-50
2022/02/16 05:28:48;;;;;;;;;;;;;;;18.33;53.53;99362.22;7282964;19;153428;-51
2022/02/16 05:31:15;;;;;;;;;;;;;;;18.30;53.59;99349.72;7292840;19;151800;-50
2022/02/16 05:33:42;;;;;;;;;;;;;;;18.30;53.11;99340.50;7283947;19;153164;-50
2022/02/16 05:36:09;;;;;;;;;;;;;;;18.31;53.08;99333.75;7281612;19;152329;-51
2022/02/16 05:38:36;;;;;;;;;;;;;;;18.28;53.67;99335.25;7282384;19;153128;-50
2022/02/16 05:41:03;;;;;;;;;;;;;;;18.27;53.68;99328.00;7281919;19;153575;-50
2022/02/16 05:43:29;;;;;;;;;;;;;;;18.26;53.57;99331.94;7283279;19;152059;-50
2022/02/16 05:45:56;;;;;;;;;;;;;;;18.26;53.47;99345.91;7282820;19;154221;-49
2022/02/16 05:48:23;;;;;;;;;;;;;;;18.25;53.61;99337.88;7280777;19;154352;-50
2022/02/16 05:50:50;;;;;;;;;;;;;;;18.26;53.83;99345.91;7281845;19;152307;-50
2022/02/16 05:53:17;;;;;;;;;;;;;;;18.25;53.86;99337.88;7290885;19;153536;-50
2022/02/16 05:55:44;;;;;;;;;;;;;;;18.24;54.17;99351.03;7279971;19;153315;-50
2022/02/16 05:58:11;;;;;;;;;;;;;;;18.23;53.81;99347.41;7285769;19;152685;-50
2022/02/16 06:00:38;;;;;;;;;;;;;;;18.29;53.82;99350.03;7282124;19;155491;-50
2022/02/16 06:03:05;;;;;;;;;;;;;;;18.35;53.82;99355.13;7281121;19;152590;-50
2022/02/16 06:05:32;;;;;;;;;;;;;;;18.37;54.00;99357.59;7284230;19;155424;-50
2022/02/16 06:08:01;;;;;;;;;;;;;;;18.39;54.06;99353.31;7281968;19;154352;-50
2022/02/16 06:10:27;;;;;;;;;;;;;;;18.43;53.49;99359.06;7282843;19;151980;-50
2022/02/16 06:12:54;;;;;;;;;;;;;;;18.46;53.76;99362.00;7290014;19;152894;-50
2022/02/16 06:15:21;;;;;;;;;;;;;;;18.51;53.51;99363.81;7279728;19;152356;-50
2022/02/16 06:17:48;;;;;;;;;;;;;;;18.55;54.17;99357.25;7280984;19;153529;-50
2022/02/16 06:20:15;;;;;;;;;;;;;;;18.60;54.42;99368.25;7281201;19;153519;-50
2022/02/16 06:22:42;;;;;;;;;;;;;;;18.65;54.37;99370.03;7280542;19;152288;-50
2022/02/16 06:25:09;;;;;;;;;;;;;;;18.71;54.47;99374.31;7284312;19;153346;-50
2022/02/16 06:27:36;;;;;;;;;;;;;;;18.80;54.19;99365.88;7282316;19;153926;-50
2022/02/16 06:30:04;;;;;;;;;;;;;;;18.85;53.97;99371.31;7281267;19;152872;-50
2022/02/16 06:32:32;;;;;;;;;;;;;;;18.91;54.01;99381.94;7281892;19;153861;-50
2022/02/16 06:34:59;;;;;;;;;;;;;;;18.99;53.88;99361.50;7288566;19;152670;-50
2022/02/16 06:37:26;;;;;;;;;;;;;;;19.05;54.05;99348.97;7281570;19;155016;-50
2022/02/16 06:39:53;;;;;;;;;;;;;;;19.12;53.96;99342.03;7280306;19;153388;-50
2022/02/16 06:42:20;;;;;;;;;;;;;;;19.18;54.07;99335.88;7279091;19;152139;-50
2022/02/16 06:44:47;;;;;;;;;;;;;;;19.25;53.42;99346.56;7281322;19;155292;-50
2022/02/16 06:47:14;;;;;;;;;;;;;;;19.30;53.40;99354.75;7287537;19;153493;-51
2022/02/16 06:49:41;;;;;;;;;;;;;;;19.38;53.41;99381.88;7289631;19;152432;-50
2022/02/16 06:52:08;;;;;;;;;;;;;;;19.43;53.43;99393.75;7288598;19;152815;-50
2022/02/16 06:54:35;;;;;;;;;;;;;;;19.49;53.39;99408.34;7286128;19;153799;-50
2022/02/16 06:57:02;;;;;;;;;;;;;;;19.56;53.08;99413.44;7297059;19;151464;-50
2022/02/16 06:59:29;;;;;;;;;;;;;;;19.60;53.15;99415.22;7285160;19;154338;-50
2022/02/16 07:01:56;;;;;;;;;;;;;;;19.68;53.23;99422.75;7286031;19;152463;-55
2022/02/16 07:04:23;;;;;;;;;;;;;;;19.74;53.11;99417.75;7287663;19;153224;-50
2022/02/16 07:06:50;;;;;;;;;;;;;;;19.79;53.38;99429.59;7287988;19;154067;-50
2022/02/16 07:09:17;;;;;;;;;;;;;;;19.84;53.37;99408.97;7286541;19;152022;-50
2022/02/16 07:11:45;;;;;;;;;;;;;;;19.89;53.04;99398.38;7286509;19;153481;-50
2022/02/16 07:14:12;;;;;;;;;;;;;;;19.95;53.20;99398.97;7286594;19;153563;-50
2022/02/16 07:16:39;;;;;;;;;;;;;;;20.01;53.01;99385.56;7286255;19;151847;-51
2022/02/16 07:19:06;;;;;;;;;;;;;;;20.07;52.48;99387.00;7295882;19;153193;-50
2022/02/16 07:21:33;;;;;;;;;;;;;;;20.11;52.49;99401.97;7286519;19;152382;-50
2022/02/16 07:24:00;;;;;;;;;;;;;;;20.17;52.59;99403.41;7286631;19;153286;-50
2022/02/16 07:26:28;;;;;;;;;;;;;;;20.22;52.23;99417.19;7288193;19;153525;-50
2022/02/16 07:28:55;;;;;;;;;;;;;;;20.26;52.42;99423.78;7283900;19;151781;-50
2022/02/16 07:31:23;;;;;;;;;;;;;;;20.31;52.17;99449.66;7286692;19;153474;-50
2022/02/16 07:33:51;;;;;;;;;;;;;;;20.35;52.31;99447.00;7286472;19;154102;-50
2022/02/16 07:36:18;;;;;;;;;;;;;;;20.40;52.31;99436.38;7286322;19;152097;-51
2022/02/16 07:38:45;;;;;;;;;;;;;;;20.44;52.10;99436.53;7287898;19;153668;-50
2022/02/16 07:41:12;;;;;;;;;;;;;;;20.49;51.75;99439.09;7292229;19;153471;-54
2022/02/16 07:43:39;;;;;;;;;;;;;;;20.53;51.62;99482.16;7286189;19;153646;-53
2022/02/16 07:46:06;;;;;;;;;;;;;;;20.57;51.49;99479.47;7282094;19;153310;-51
2022/02/16 07:48:33;;;;;;;;;;;;;;;20.62;51.62;99490.50;7288133;19;152108;-51
2022/02/16 07:51:00;;;;;;;;;;;;;;;20.65;51.56;99499.03;7285268;19;152667;-51
2022/02/16 07:53:36;;;;;;;;;;;;;;;20.68;51.23;99494.69;7283983;19;152358;-51
2022/02/16 07:56:04;;;;;;;;;;;;;;;20.71;51.16;99488.41;7286442;19;151999;-50
2022/02/16 07:58:32;;;;;;;;;;;;;;;20.74;51.54;99480.13;7285022;19;155531;-50
2022/02/16 08:00:58;;;;;;;;;;;;;;;20.76;51.15;99452.50;7286763;19;152239;-51
2022/02/16 08:03:25;;;;;;;;;;;;;;;20.78;50.67;99461.41;7289573;19;152907;-50
2022/02/16 08:05:53;;;;;;;;;;;;;;;20.79;50.98;99476.28;7283656;19;153254;-50
2022/02/16 08:08:22;;;;;;;;;;;;;;;20.81;50.48;99485.16;7287180;19;151879;-51
2022/02/16 08:10:51;;;;;;;;;;;;;;;20.84;50.13;99478.88;7282566;19;152618;-50
2022/02/16 08:13:18;;;;;;;;;;;;;;;20.84;50.17;99474.09;7286101;19;153391;-50
2022/02/16 08:15:46;;;;;;;;;;;;;;;20.85;49.97;99481.31;7285890;19;151860;-50
2022/02/16 08:18:14;;;;;;;;;;;;;;;20.86;49.67;99480.16;7285004;19;153664;-50
2022/02/16 08:20:44;;;;;;;;;;;;;;;20.86;49.88;99477.34;7282813;19;154366;-50
2022/02/16 08:23:11;;;;;;;;;;;;;;;20.88;49.93;99493.03;7294173;19;152512;-50
2022/02/16 08:25:38;;;;;;;;;;;;;;;20.88;50.08;99498.66;7285630;19;153810;-52
2022/02/16 08:28:06;;;;;;;;;;;;;;;20.86;49.70;99496.19;7284760;19;152211;-50
2022/02/16 08:30:34;;;;;;;;;;;;;;;20.86;49.63;99488.56;7286695;19;152912;-50
2022/02/16 08:33:01;;;;;;;;;;;;;;;20.84;49.42;99481.69;7282852;19;154339;-51
2022/02/16 08:35:28;;;;;;;;;;;;;;;20.84;49.21;99478.88;7287139;19;151950;-51
2022/02/16 08:37:57;;;;;;;;;;;;;;;20.83;49.42;99477.22;7281405;19;152625;-51
2022/02/16 08:40:24;;;;;;;;;;;;;;;20.82;49.15;99470.78;7285728;19;153123;-50
2022/02/16 08:43:11;;;;;;;;;;;;;;;20.78;48.76;99489.50;7284906;19;152037;-51
2022/02/16 08:45:38;;;;;;;;;;;;;;;20.78;48.88;99480.25;7291154;19;153486;-51
2022/02/16 08:48:06;;;;;;;;;;;;;;;20.76;49.01;99494.63;7287108;19;152415;-51
2022/02/16 08:50:33;;;;;;;;;;;;;;;20.76;48.85;99474.97;7285752;19;153525;-51
2022/02/16 08:53:00;;;;;;;;;;;;;;;20.73;48.78;99470.06;7285356;19;154211;-51
2022/02/16 08:55:27;;;;;;;;;;;;;;;20.71;49.34;99492.06;7284118;19;151857;-51
2022/02/16 08:57:54;;;;;;;;;;;;;;;20.71;48.83;99500.47;7281938;19;153899;-51
2022/02/16 09:00:22;;;;;;;;;;;;;;;20.69;48.85;99491.56;7285435;19;153338;-51
2022/02/16 09:02:49;;;;;;;;;;;;;;;20.67;48.95;99488.28;7285934;19;152059;-51
2022/02/16 09:05:17;;;;;;;;;;;;;;;20.65;48.74;99496.22;7282782;19;153235;-51
2022/02/16 09:07:47;;;;;;;;;;;;;;;20.64;48.73;99491.78;7291513;19;155461;-52
2022/02/16 09:10:14;;;;;;;;;;;;;;;20.65;49.15;99495.41;7284707;19;152943;-52
2022/02/16 09:12:45;;;;;;;;;;;;;;;20.63;49.40;99503.34;7282514;19;153732;-51
2022/02/16 09:15:12;;;;;;;;;;;;;;;20.65;49.74;99507.47;7283203;19;152010;-50
2022/02/16 09:17:39;;;;;;;;;;;;;;;20.59;48.99;99511.63;7283696;19;153175;-51
2022/02/16 09:20:06;;;;;;;;;;;;;;;20.56;49.15;99512.31;7283483;19;152558;-51
2022/02/16 09:22:34;;;;;;;;;;;;;;;20.53;49.34;99513.03;7283443;19;152135;-51
2022/02/16 09:25:02;;;;;;;;;;;;;;;20.51;49.28;99529.38;7280927;19;152707;-51
2022/02/16 09:27:29;;;;;;;;;;;;;;;20.49;49.08;99540.09;7284349;19;155331;-52
2022/02/16 09:29:56;;;;;;;;;;;;;;;20.47;49.50;99553.66;7290347;19;152312;-52
2022/02/16 09:32:24;;;;;;;;;;;;;;;20.45;49.03;99555.97;7284332;19;153284;-52
2022/02/16 09:34:52;;;;;;;;;;;;;;;20.44;49.24;99559.97;7285229;19;152032;-52
2022/02/16 09:37:19;;;;;;;;;;;;;;;20.41;49.53;99541.00;7282497;19;152134;-52
2022/02/16 09:39:46;;;;;;;;;;;;;;;20.42;49.50;99546.28;7283360;19;153430;-52
2022/02/16 09:42:13;;;;;;;;;;;;;;;20.40;49.26;99536.53;7284641;19;152255;-51
2022/02/16 09:44:42;;;;;;;;;;;;;;;20.37;49.72;99523.22;7282586;19;152880;-52
2022/02/16 09:47:10;;;;;;;;;;;;;;;20.37;49.58;99531.63;7283735;19;153207;-52
2022/02/16 09:49:38;;;;;;;;;;;;;;;20.33;49.21;99553.09;7282145;19;151782;-52
2022/02/16 09:52:06;;;;;;;;;;;;;;;20.28;49.32;99534.47;7289337;19;152961;-51
2022/02/16 09:54:34;;;;;;;;;;;;;;;20.28;49.25;99517.63;7283312;19;152158;-52
2022/02/16 09:57:01;;;;;;;;;;;;;;;20.26;49.07;99510.75;7281592;19;152561;-51
2022/02/16 09:59:28;;;;;;;;;;;;;;;20.25;49.01;99542.75;7278929;19;154206;-51
2022/02/16 10:01:57;;;;;;;;;;;;;;;20.19;49.24;99536.50;7284209;19;151829;-51
2022/02/16 10:04:25;;;;;;;;;;;;;;;20.18;49.00;99526.44;7282914;19;151944;-51
2022/02/16 10:06:52;;;;;;;;;;;;;;;20.16;49.40;99523.19;7279280;19;152768;-51
2022/02/16 10:09:23;;;;;;;;;;;;;;;20.14;49.37;99499.44;7284049;19;151771;-51
2022/02/16 10:11:51;;;;;;;;;;;;;;;20.12;49.34;99501.75;7283728;19;154629;-51
2022/02/16 10:14:21;;;;;;;;;;;;;;;20.11;49.05;99506.56;7286557;19;152114;-51
2022/02/16 10:16:48;;;;;;;;;;;;;;;20.08;49.01;99515.63;7283719;19;152083;-52
2022/02/16 10:19:15;;;;;;;;;;;;;;;20.07;49.05;99508.41;7281331;19;154646;-51
2022/02/16 10:21:52;;;;;;;;;;;;;;;20.03;49.21;99503.81;7282665;19;151743;-51
2022/02/16 10:24:20;;;;;;;;;;;;;;;19.97;49.07;99506.81;7282760;19;153050;-51
2022/02/16 10:26:49;;;;;;;;;;;;;;;19.96;49.04;99491.16;7282895;19;154148;-51
2022/02/16 10:29:18;;;;;;;;;;;;;;;19.92;49.41;99493.00;7273560;19;151998;-51
2022/02/16 10:31:45;;;;;;;;;;;;;;;19.91;49.39;99496.94;7276830;19;152843;-51
2022/02/16 10:34:13;;;;;;;;;;;;;;;19.89;49.44;99498.47;7288618;19;154011;-51
2022/02/16 10:36:40;;;;;;;;;;;;;;;19.88;49.35;99486.41;7282704;19;153663;-51
2022/02/16 10:39:11;;;;;;;;;;;;;;;19.88;48.98;99494.81;7281374;19;153833;-51
2022/02/16 10:41:39;;;;;;;;;;;;;;;19.84;49.09;99501.44;7280556;19;152123;-51
2022/02/16 10:44:16;;;;;;;;;;;;;;;19.82;49.43;99482.16;7279625;19;151872;-51
2022/02/16 10:46:43;;;;;;;;;;;;;;;19.82;49.35;99498.97;7278128;19;154010;-51
2022/02/16 10:49:11;;;;;;;;;;;;;;;19.80;49.10;99481.69;7282477;19;152027;-51
2022/02/16 10:52:08;;;;;;;;;;;;;;;19.78;49.41;99505.59;7281002;19;155127;-51
2022/02/16 10:54:35;;;;;;;;;;;;;;;19.77;49.13;99501.16;7278311;19;153976;-51
2022/02/16 10:57:03;;;;;;;;;;;;;;;19.75;49.23;99504.31;7287684;19;152311;-51
2022/02/16 10:59:31;;;;;;;;;;;;;;;19.74;49.45;99508.25;7281521;19;153547;-51
2022/02/16 11:02:03;;;;;;;;;;;;;;;19.75;49.48;99498.72;7281884;19;152058;-51
2022/02/16 11:04:31;;;;;;;;;;;;;;;19.77;49.35;99504.78;7280291;19;154396;-51
2022/02/16 11:06:59;;;;;;;;;;;;;;;19.78;49.20;99517.63;7280161;19;153286;-51
2022/02/16 11:09:28;;;;;;;;;;;;;;;19.81;49.21;99516.94;7280276;19;152013;-51
2022/02/16 11:11:56;;;;;;;;;;;;;;;19.84;49.23;99544.31;7279194;19;152828;-51
2022/02/16 11:14:25;;;;;;;;;;;;;;;19.87;49.28;99514.78;7279966;19;153167;-51
2022/02/16 11:16:52;;;;;;;;;;;;;;;19.91;49.03;99513.75;7279940;19;151758;-51
2022/02/16 11:19:23;;;;;;;;;;;;;;;19.95;49.15;99517.53;7287983;19;152314;-51
2022/02/16 11:21:59;;;;;;;;;;;;;;;20.01;48.86;99515.34;7278471;19;151971;-51
2022/02/16 11:24:27;;;;;;;;;;;;;;;20.06;48.82;99508.72;7279160;19;152808;-51
2022/02/16 11:26:55;;;;;;;;;;;;;;;20.12;48.88;99484.94;7277339;19;153921;-51
2022/02/16 11:29:25;;;;;;;;;;;;;;;20.16;48.49;99480.28;7277383;19;152003;-51
2022/02/16 11:31:53;;;;;;;;;;;;;;;20.20;48.52;99484.03;7275541;19;152746;-51
2022/02/16 11:34:21;;;;;;;;;;;;;;;20.24;48.24;99518.66;7281632;19;154039;-51
2022/02/16 11:36:53;;;;;;;;;;;;;;;20.27;48.41;99529.19;7287095;19;152539;-51
2022/02/16 11:39:40;;;;;;;;;;;;;;;20.31;47.97;99525.38;7287667;19;153442;-51
2022/02/16 11:42:10;;;;;;;;;;;;;;;20.36;48.17;99515.94;7291624;19;153549;-51
2022/02/16 11:44:57;;;;;;;;;;;;;;;20.38;47.98;99513.63;7286169;19;151877;-51
2022/02/16 11:47:35;;;;;;;;;;;;;;;20.42;47.91;99517.41;7283415;19;154101;-51
2022/02/16 11:50:10;;;;;;;;;;;;;;;20.43;47.57;99485.38;7287698;19;151747;-51
2022/02/16 11:52:40;;;;;;;;;;;;;;;20.46;47.60;99503.50;7284303;19;152796;-51
2022/02/16 11:55:22;;;;;;;;;;;;;;;20.48;47.62;99495.56;7286581;19;153800;-51
2022/02/16 11:57:52;;;;;;;;;;;;;;;20.49;47.30;99477.56;7286168;19;152404;-51
2022/02/16 12:00:20;;;;;;;;;;;;;;;20.50;47.55;99480.00;7285657;19;152809;-51
2022/02/16 12:02:59;;;;;;;;;;;;;;;20.50;47.34;99488.44;7283120;19;154446;-51
2022/02/16 12:05:36;;;;;;;;;;;;;;;20.50;47.69;99448.34;7289280;19;153547;-51
2022/02/16 12:08:12;;;;;;;;;;;;;;;20.52;47.27;99440.41;7283692;19;153573;-51
2022/02/16 12:10:41;;;;;;;;;;;;;;;20.52;47.48;99423.56;7281661;19;152177;-51
2022/02/16 12:13:09;;;;;;;;;;;;;;;20.52;47.14;99420.75;7286789;19;153674;-51
2022/02/16 12:15:45;;;;;;;;;;;;;;;20.52;47.09;99429.19;7284574;19;152412;-51
2022/02/16 12:18:13;;;;;;;;;;;;;;;20.51;47.32;99436.78;7285683;19;151963;-51
2022/02/16 12:20:48;;;;;;;;;;;;;;;20.50;47.38;99429.50;7284576;19;152775;-51
2022/02/16 12:23:16;;;;;;;;;;;;;;;20.49;47.07;99419.44;7284045;19;152382;-51
2022/02/16 12:25:43;;;;;;;;;;;;;;;20.50;47.38;99409.88;7291639;19;151638;-51
2022/02/16 12:28:10;;;;;;;;;;;;;;;20.48;47.53;99403.81;7283360;19;154121;-51
2022/02/16 12:30:40;;;;;;;;;;;;;;;20.48;47.54;99405.78;7282429;19;152753;-51
2022/02/16 12:33:27;;;;;;;;;;;;;;;20.47;47.28;99419.00;7283151;19;151877;-50
2022/02/16 12:35:55;;;;;;;;;;;;;;;20.47;47.32;99420.97;7284085;19;153957;-51
2022/02/16 12:38:24;;;;;;;;;;;;;;;20.45;47.49;99412.06;7285955;19;152150;-51
2022/02/16 12:40:51;;;;;;;;;;;;;;;20.44;47.11;99399.22;7284468;19;153524;-51